createdAt,value
2022-08-11T00:01:29.550Z,2.25
2022-08-11T00:03:59.458Z,2.72
2022-08-11T00:06:30.139Z,1.92
2022-08-11T00:08:59.290Z,3.15
2022-08-11T00:11:42.766Z,2.25
2022-08-11T00:14:15.971Z,1.60
2022-08-11T00:16:53.947Z,1.50
2022-08-11T00:20:15.132Z,1.40
2022-08-11T00:22:22.627Z,1.88
2022-08-11T00:24:54.969Z,1.60
2022-08-11T00:27:38.800Z,1.40
2022-08-11T00:30:08.085Z,1.30
2022-08-11T00:32:38.177Z,1.20
2022-08-11T00:35:54.679Z,1.45
2022-08-11T00:37:57.259Z,1.30
2022-08-11T00:40:53.313Z,1.77
2022-08-11T00:43:29.986Z,1.33
2022-08-11T00:46:06.172Z,1.60
2022-08-11T00:49:02.585Z,1.73
2022-08-11T00:52:06.428Z,1.58
2022-08-11T00:54:39.594Z,1.60
2022-08-11T00:57:37.748Z,1.30
2022-08-11T01:00:17.240Z,1.50
2022-08-11T01:03:21.700Z,1.50
2022-08-11T01:06:19.711Z,1.50
2022-08-11T01:09:21.989Z,1.55
2022-08-11T01:12:14.618Z,1.40
2022-08-11T01:14:41.928Z,1.60
2022-08-11T01:17:27.465Z,1.40
2022-08-11T01:20:47.609Z,1.50
2022-08-11T01:24:00.379Z,2.10
2022-08-11T01:26:52.308Z,1.63
2022-08-11T01:29:22.126Z,1.77
2022-08-11T01:32:33.692Z,1.60
2022-08-11T01:35:18.877Z,1.35
2022-08-11T01:38:08.114Z,1.70
2022-08-11T01:41:01.107Z,1.60
2022-08-11T01:44:05.733Z,1.80
2022-08-11T01:47:35.184Z,1.42
2022-08-11T01:50:16.750Z,1.50
2022-08-11T01:53:21.399Z,1.63
2022-08-11T01:56:34.561Z,1.65
2022-08-11T01:59:12.430Z,1.60
2022-08-11T02:02:06.776Z,1.50
2022-08-11T02:05:01.744Z,1.48
2022-08-11T02:07:39.014Z,1.67
2022-08-11T02:10:43.099Z,1.50
2022-08-11T02:14:16.707Z,1.70
2022-08-11T02:17:02.735Z,1.85
2022-08-11T02:20:28.952Z,1.40
2022-08-11T02:23:58.704Z,1.58
2022-08-11T02:26:47.062Z,1.90
2022-08-11T02:29:35.342Z,1.48
2022-08-11T02:33:03.007Z,1.60
2022-08-11T02:35:55.022Z,1.52
2022-08-11T02:38:43.533Z,1.70
2022-08-11T02:41:35.562Z,1.52
2022-08-11T02:44:45.075Z,1.97
2022-08-11T02:47:32.477Z,1.58
2022-08-11T02:50:16.054Z,1.50
2022-08-11T02:53:05.157Z,1.67
2022-08-11T02:55:58.431Z,1.60
2022-08-11T02:58:40.558Z,1.63
2022-08-11T03:01:11.704Z,1.42
2022-08-11T03:03:53.844Z,1.70
2022-08-11T03:06:39.074Z,1.70
2022-08-11T03:09:38.688Z,1.83
2022-08-11T03:12:30.234Z,1.83
2022-08-11T03:16:08.067Z,1.98
2022-08-11T03:18:48.636Z,1.90
2022-08-11T03:21:24.787Z,2.42
2022-08-11T03:24:29.502Z,2.10
2022-08-11T03:27:11.196Z,1.90
2022-08-11T03:30:10.674Z,2.40
2022-08-11T03:33:12.959Z,2.22
2022-08-11T03:36:06.490Z,1.77
2022-08-11T03:38:48.640Z,2.10
2022-08-11T03:42:02.751Z,1.85
2022-08-11T03:44:55.252Z,1.83
2022-08-11T03:48:07.153Z,2.03
2022-08-11T03:51:02.553Z,2.22
2022-08-11T03:53:56.939Z,1.80
2022-08-11T03:56:24.185Z,2.28
2022-08-11T03:59:06.385Z,2.08
2022-08-11T04:01:48.543Z,2.10
2022-08-11T04:04:31.100Z,2.13
2022-08-11T04:07:31.441Z,2.10
2022-08-11T04:10:08.132Z,2.38
2022-08-11T04:12:56.748Z,2.70
2022-08-11T04:16:00.956Z,2.25
2022-08-11T04:18:51.823Z,2.70
2022-08-11T04:22:09.233Z,2.15
2022-08-11T04:24:39.619Z,1.95
2022-08-11T04:27:36.911Z,1.98
2022-08-11T04:30:34.321Z,2.20
2022-08-11T04:35:54.944Z,2.15
2022-08-11T04:38:31.350Z,2.53
2022-08-11T04:41:28.207Z,2.40
2022-08-11T04:44:35.824Z,2.20
2022-08-11T04:48:01.858Z,2.33
2022-08-11T04:51:17.512Z,2.50
2022-08-11T04:54:16.070Z,2.15
2022-08-11T04:57:05.738Z,2.58
2022-08-11T05:00:25.398Z,2.10
2022-08-11T05:03:04.828Z,2.17
2022-08-11T05:05:58.774Z,2.05
2022-08-11T05:09:18.712Z,2.13
2022-08-11T05:12:01.568Z,2.60
2022-08-11T05:14:55.589Z,2.65
2022-08-11T05:17:56.117Z,2.70
2022-08-11T05:20:44.518Z,2.72
2022-08-11T05:23:31.521Z,2.30
2022-08-11T05:26:46.150Z,2.70
2022-08-11T05:30:04.133Z,2.47
2022-08-11T05:33:01.695Z,2.40
2022-08-11T05:36:01.501Z,2.50
2022-08-11T05:38:54.258Z,2.13
2022-08-11T05:41:45.533Z,2.67
2022-08-11T05:44:38.020Z,2.55
2022-08-11T05:47:24.336Z,2.25
2022-08-11T05:50:13.283Z,2.17
2022-08-11T05:53:05.137Z,2.50
2022-08-11T05:56:08.267Z,2.67
2022-08-11T05:58:49.468Z,2.95
2022-08-11T06:01:31.788Z,2.50
2022-08-11T06:04:14.358Z,3.00
2022-08-11T06:06:55.085Z,3.90
2022-08-11T06:09:35.467Z,2.60
2022-08-11T06:12:09.294Z,2.55
2022-08-11T06:14:46.176Z,2.45
2022-08-11T06:17:17.224Z,3.55
2022-08-11T06:19:49.340Z,2.80
2022-08-11T06:22:21.990Z,2.20
2022-08-11T06:24:58.036Z,3.00
2022-08-11T06:27:27.121Z,2.50
2022-08-11T06:29:55.945Z,2.65
2022-08-11T06:32:36.264Z,2.30
2022-08-11T06:35:17.062Z,2.22
2022-08-11T06:38:06.641Z,2.40
2022-08-11T06:41:20.323Z,2.50
2022-08-11T06:43:55.406Z,2.80
2022-08-11T06:46:29.912Z,2.45
2022-08-11T06:49:04.282Z,2.20
2022-08-11T06:51:35.068Z,2.15
2022-08-11T06:54:05.603Z,2.75
2022-08-11T06:57:26.470Z,2.17
2022-08-11T07:00:04.503Z,2.70
2022-08-11T07:02:50.257Z,2.20
2022-08-11T07:05:27.784Z,2.53
2022-08-11T07:08:51.289Z,2.58
2022-08-11T07:12:09.097Z,2.10
2022-08-11T07:15:00.440Z,2.03
2022-08-11T07:17:29.884Z,1.70
2022-08-11T07:20:19.742Z,2.08
2022-08-11T07:23:15.305Z,2.10
2022-08-11T07:26:03.506Z,2.10
2022-08-11T07:28:52.268Z,2.20
2022-08-11T07:31:42.364Z,2.83
2022-08-11T07:34:20.688Z,2.80
2022-08-11T07:37:01.694Z,1.92
2022-08-11T07:39:33.090Z,2.55
2022-08-11T07:42:07.583Z,2.08
2022-08-11T07:44:55.969Z,1.85
2022-08-11T07:47:42.472Z,1.38
2022-08-11T07:50:30.028Z,1.65
2022-08-11T07:53:03.147Z,1.58
2022-08-11T07:55:51.814Z,1.90
2022-08-11T07:59:04.302Z,2.00
2022-08-11T08:02:08.161Z,1.60
2022-08-11T08:04:57.707Z,1.40
2022-08-11T08:08:02.027Z,1.40
2022-08-11T08:13:53.978Z,1.77
2022-08-11T08:16:42.650Z,1.70
2022-08-11T08:19:16.353Z,1.58
2022-08-11T08:21:45.702Z,1.80
2022-08-11T08:24:17.454Z,2.00
2022-08-11T08:27:00.409Z,2.53
2022-08-11T08:29:51.890Z,1.90
2022-08-11T08:32:22.588Z,1.90
2022-08-11T08:34:53.929Z,1.80
2022-08-11T08:37:45.282Z,1.60
2022-08-11T08:40:15.474Z,1.90
2022-08-11T08:42:51.654Z,1.85
2022-08-11T08:45:19.771Z,2.28
2022-08-11T08:48:02.898Z,1.88
2022-08-11T08:50:55.830Z,1.80
2022-08-11T08:53:32.556Z,1.70
2022-08-11T08:56:03.753Z,1.95
2022-08-11T08:58:36.054Z,1.80
2022-08-11T09:04:07.183Z,2.95
2022-08-11T09:06:31.737Z,1.75
2022-08-11T09:09:02.531Z,1.92
2022-08-11T09:11:49.272Z,1.60
2022-08-11T09:14:55.450Z,1.70
2022-08-11T09:17:28.327Z,1.65
2022-08-11T09:20:03.310Z,1.70
2022-08-11T09:23:24.282Z,1.70
2022-08-11T09:26:04.276Z,2.30
2022-08-11T09:28:33.231Z,1.58
2022-08-11T09:31:14.425Z,1.85
2022-08-11T09:33:43.869Z,1.50
2022-08-11T09:36:32.853Z,2.50
2022-08-11T09:39:21.649Z,1.70
2022-08-11T09:42:00.660Z,1.70
2022-08-11T09:44:49.873Z,1.50
2022-08-11T09:47:26.534Z,1.85
2022-08-11T09:50:02.457Z,1.05
2022-08-11T09:52:38.000Z,1.60
2022-08-11T09:55:18.476Z,1.30
2022-08-11T09:58:10.376Z,1.90
2022-08-11T10:00:38.202Z,1.40
2022-08-11T10:03:25.448Z,1.55
2022-08-11T10:06:34.649Z,4.22
2022-08-11T10:09:07.915Z,1.50
2022-08-11T10:11:37.829Z,1.40
2022-08-11T10:14:32.845Z,1.40
2022-08-11T10:17:17.389Z,1.38
2022-08-11T10:20:04.441Z,1.50
2022-08-11T10:22:53.030Z,1.52
2022-08-11T10:25:40.318Z,1.60
2022-08-11T10:28:32.660Z,1.58
2022-08-11T10:31:17.941Z,1.55
2022-08-11T10:34:02.085Z,1.63
2022-08-11T10:36:50.744Z,1.35
2022-08-11T10:39:20.772Z,1.67
2022-08-11T10:42:12.140Z,1.67
2022-08-11T10:44:50.871Z,1.85
2022-08-11T10:47:35.146Z,1.80
2022-08-11T10:50:31.940Z,1.95
2022-08-11T10:53:24.250Z,1.88
2022-08-11T10:56:10.526Z,2.35
2022-08-11T10:58:50.746Z,2.03
2022-08-11T11:01:32.030Z,3.05
2022-08-11T11:04:05.083Z,2.45
2022-08-11T11:07:08.052Z,2.15
2022-08-11T11:09:44.878Z,2.30
2022-08-11T11:12:38.624Z,2.00
2022-08-11T11:15:26.157Z,1.90
2022-08-11T11:18:05.208Z,2.08
2022-08-11T11:20:47.314Z,1.98
2022-08-11T11:23:18.834Z,2.08
2022-08-11T11:26:14.688Z,1.98
2022-08-11T11:28:55.272Z,1.80
2022-08-11T11:31:48.955Z,2.30
2022-08-11T11:34:53.119Z,2.28
2022-08-11T11:37:25.626Z,1.92
2022-08-11T11:40:00.282Z,1.95
2022-08-11T11:42:29.743Z,2.97
2022-08-11T11:45:01.206Z,2.22
2022-08-11T11:47:32.236Z,2.05
2022-08-11T11:50:00.412Z,2.03
2022-08-11T11:52:30.858Z,2.00
2022-08-11T11:55:06.006Z,2.03
2022-08-11T11:57:58.741Z,2.10
2022-08-11T12:00:49.261Z,1.80
2022-08-11T12:03:18.361Z,2.22
2022-08-11T12:05:46.925Z,2.40
2022-08-11T12:08:18.962Z,2.67
2022-08-11T12:11:12.947Z,2.05
2022-08-11T12:13:52.399Z,2.20
2022-08-11T12:16:33.648Z,2.25
2022-08-11T12:19:05.581Z,2.22
2022-08-11T12:21:36.318Z,2.60
2022-08-11T12:24:23.240Z,2.15
2022-08-11T12:27:17.757Z,1.95
2022-08-11T12:30:08.694Z,2.25
2022-08-11T12:32:37.981Z,2.00
2022-08-11T12:35:09.688Z,2.30
2022-08-11T12:37:44.917Z,2.03
2022-08-11T12:40:43.608Z,2.10
2022-08-11T12:43:57.203Z,2.22
2022-08-11T12:46:38.832Z,2.00
2022-08-11T12:49:33.100Z,2.50
2022-08-11T12:52:13.965Z,2.20
2022-08-11T12:54:59.086Z,2.55
2022-08-11T12:58:00.306Z,2.40
2022-08-11T13:00:47.549Z,2.20
2022-08-11T13:03:33.979Z,2.05
2022-08-11T13:06:04.131Z,1.98
2022-08-11T13:11:20.590Z,2.40
2022-08-11T13:13:55.968Z,2.28
2022-08-11T13:16:29.424Z,2.03
2022-08-11T13:19:03.886Z,2.47
2022-08-11T13:21:31.834Z,2.50
2022-08-11T13:24:05.399Z,2.33
2022-08-11T13:26:43.423Z,2.28
2022-08-11T13:29:25.372Z,2.55
2022-08-11T13:32:01.014Z,2.60
2022-08-11T13:34:34.607Z,2.20
2022-08-11T13:37:05.498Z,2.35
2022-08-11T13:39:34.786Z,2.20
2022-08-11T13:42:06.050Z,2.22
2022-08-11T13:44:38.976Z,2.47
2022-08-11T13:47:08.988Z,2.50
2022-08-11T13:49:39.862Z,2.60
2022-08-11T13:52:15.548Z,2.43
2022-08-11T13:54:45.662Z,2.30
2022-08-11T13:58:06.721Z,2.50
2022-08-11T14:00:27.703Z,3.50
2022-08-11T14:02:59.563Z,2.70
2022-08-11T14:05:38.202Z,2.97
2022-08-11T14:08:33.925Z,2.17
2022-08-11T14:12:21.329Z,2.35
2022-08-11T14:14:21.625Z,2.22
2022-08-11T14:16:51.579Z,2.25
2022-08-11T14:19:23.221Z,2.22
2022-08-11T14:22:10.932Z,2.25
2022-08-11T14:24:42.433Z,2.55
2022-08-11T14:28:32.639Z,2.40
2022-08-11T14:29:59.677Z,2.30
2022-08-11T14:32:27.844Z,2.50
2022-08-11T14:34:55.879Z,2.38
2022-08-11T14:37:25.842Z,2.38
2022-08-11T14:40:02.264Z,2.50
2022-08-11T14:42:49.890Z,2.33
2022-08-11T14:45:55.505Z,2.50
2022-08-11T14:48:23.846Z,2.47
2022-08-11T14:50:51.535Z,2.40
2022-08-11T14:53:22.694Z,2.55
2022-08-11T14:56:09.884Z,2.83
2022-08-11T14:58:37.655Z,2.25
2022-08-11T15:01:25.644Z,6.20
2022-08-11T15:04:27.388Z,2.50
2022-08-11T15:06:41.080Z,2.75
2022-08-11T15:09:09.458Z,2.42
2022-08-11T15:11:55.993Z,2.75
2022-08-11T15:14:42.610Z,2.95
2022-08-11T15:17:13.088Z,2.72
2022-08-11T15:20:01.627Z,2.67
2022-08-11T15:22:50.001Z,2.75
2022-08-11T15:25:17.508Z,2.80
2022-08-11T15:28:07.441Z,3.65
2022-08-11T15:30:56.230Z,3.70
2022-08-11T15:33:45.598Z,2.72
2022-08-11T15:36:33.436Z,3.55
2022-08-11T15:39:07.121Z,3.45
2022-08-11T15:42:02.664Z,2.67
2022-08-11T15:45:04.048Z,2.95
2022-08-11T15:47:42.857Z,2.92
2022-08-11T15:50:21.995Z,3.58
2022-08-11T15:52:56.937Z,2.50
2022-08-11T15:55:25.489Z,2.90
2022-08-11T15:58:14.011Z,2.75
2022-08-11T16:01:08.514Z,3.72
2022-08-11T16:04:07.119Z,3.22
2022-08-11T16:06:50.551Z,2.97
2022-08-11T16:09:28.002Z,2.97
2022-08-11T16:12:04.989Z,3.13
2022-08-11T16:14:56.446Z,3.22
2022-08-11T16:17:27.086Z,3.10
2022-08-11T16:19:57.393Z,2.90
2022-08-11T16:23:02.431Z,2.97
2022-08-11T16:27:02.836Z,2.10
2022-08-11T16:28:23.504Z,2.20
2022-08-11T16:30:53.607Z,2.05
2022-08-11T16:33:50.604Z,2.38
2022-08-11T16:36:39.225Z,2.20
2022-08-11T16:39:07.612Z,2.50
2022-08-11T16:41:56.147Z,2.65
2022-08-11T16:44:44.076Z,2.70
2022-08-11T16:47:16.532Z,1.90
2022-08-11T16:49:52.702Z,2.38
2022-08-11T16:52:26.427Z,2.33
2022-08-11T16:54:53.745Z,2.38
2022-08-11T16:57:46.823Z,2.10
2022-08-11T17:00:16.536Z,2.35
2022-08-11T17:03:15.618Z,2.28
2022-08-11T17:06:11.761Z,2.30
2022-08-11T17:09:06.051Z,2.53
2022-08-11T17:12:01.379Z,3.05
2022-08-11T17:14:44.043Z,2.53
2022-08-11T17:17:18.552Z,2.60
2022-08-11T17:20:41.239Z,2.65
2022-08-11T17:23:00.845Z,2.20
2022-08-11T17:25:31.881Z,1.67
2022-08-11T17:28:20.586Z,2.47
2022-08-11T17:31:18.363Z,2.63
2022-08-11T17:34:18.538Z,2.63
2022-08-11T17:36:46.361Z,2.80
2022-08-11T17:39:16.269Z,2.50
2022-08-11T17:42:03.576Z,2.60
2022-08-11T17:44:50.808Z,3.13
2022-08-11T17:47:41.531Z,9.43
2022-08-11T17:50:17.560Z,2.33
2022-08-11T17:53:05.971Z,2.72
2022-08-11T17:55:54.389Z,3.08
2022-08-11T17:58:42.267Z,2.90
2022-08-11T18:01:11.868Z,2.92
2022-08-11T18:03:54.613Z,2.97
2022-08-11T18:06:34.493Z,2.92
2022-08-11T18:09:26.493Z,2.80
2022-08-11T18:12:13.511Z,2.08
2022-08-11T18:15:03.729Z,2.40
2022-08-11T18:17:50.251Z,2.53
2022-08-11T18:20:37.498Z,3.33
2022-08-11T18:23:46.030Z,2.60
2022-08-11T18:26:38.391Z,3.22
2022-08-11T18:29:26.682Z,3.45
2022-08-11T18:32:21.788Z,3.50
2022-08-11T18:35:15.648Z,3.92
2022-08-11T18:38:06.039Z,4.05
2022-08-11T18:40:54.510Z,7.85
2022-08-11T18:43:44.829Z,4.43
2022-08-11T18:46:35.182Z,4.40
2022-08-11T18:50:02.649Z,9.80
2022-08-11T18:52:41.709Z,4.72
2022-08-11T18:55:32.515Z,4.47
2022-08-11T18:58:21.911Z,4.97
2022-08-11T19:01:08.953Z,4.68
2022-08-11T19:03:56.182Z,5.15
2022-08-11T19:06:57.561Z,4.47
2022-08-11T19:09:45.219Z,4.90
2022-08-11T19:12:33.063Z,4.38
2022-08-11T19:15:20.434Z,4.63
2022-08-11T19:18:07.441Z,5.35
2022-08-11T19:20:55.600Z,5.40
2022-08-11T19:23:52.576Z,6.57
2022-08-11T19:26:40.222Z,5.80
2022-08-11T19:30:05.005Z,5.40
2022-08-11T19:32:33.589Z,5.57
2022-08-11T19:35:21.423Z,5.50
2022-08-11T19:38:09.216Z,4.57
2022-08-11T19:40:56.974Z,5.07
2022-08-11T19:43:45.236Z,5.70
2022-08-11T19:46:31.983Z,5.88
2022-08-11T19:49:19.536Z,6.25
2022-08-11T19:52:06.716Z,5.60
2022-08-11T19:54:55.110Z,6.30
2022-08-11T19:57:42.962Z,5.97
2022-08-11T20:00:35.802Z,5.78
2022-08-11T20:03:25.041Z,5.40
2022-08-11T20:06:11.719Z,5.93
2022-08-11T20:09:01.524Z,5.93
2022-08-11T20:11:52.521Z,6.45
2022-08-11T20:14:39.893Z,6.30
2022-08-11T20:17:27.300Z,6.30
2022-08-11T20:20:14.030Z,5.90
2022-08-11T20:23:01.603Z,5.90
2022-08-11T20:25:48.675Z,4.85
2022-08-11T20:28:38.256Z,4.70
2022-08-11T20:31:27.525Z,5.03
2022-08-11T20:34:14.459Z,5.13
2022-08-11T20:37:04.675Z,5.50
2022-08-11T20:39:51.799Z,4.47
2022-08-11T20:42:39.484Z,4.90
2022-08-11T20:45:27.795Z,5.53
2022-08-11T20:48:16.240Z,4.82
2022-08-11T20:51:06.395Z,8.02
2022-08-11T20:54:05.710Z,6.32
2022-08-11T20:56:54.607Z,4.65
2022-08-11T20:59:50.700Z,5.30
2022-08-11T21:02:44.927Z,4.97
2022-08-11T21:06:09.918Z,6.65
2022-08-11T21:08:46.099Z,5.40
2022-08-11T21:11:34.768Z,5.38
2022-08-11T21:14:23.514Z,5.25
2022-08-11T21:17:26.755Z,5.10
2022-08-11T21:20:21.526Z,5.60
2022-08-11T21:23:32.386Z,4.95
2022-08-11T21:26:25.896Z,4.50
2022-08-11T21:29:24.058Z,5.85
2022-08-11T21:32:23.738Z,5.60
2022-08-11T21:35:13.148Z,4.90
2022-08-11T21:38:01.237Z,5.85
2022-08-11T21:40:54.010Z,5.05
2022-08-11T21:43:41.147Z,4.82
2022-08-11T21:46:28.316Z,4.50
2022-08-11T21:49:21.518Z,5.28
2022-08-11T21:52:10.222Z,5.28
2022-08-11T21:54:57.358Z,4.68
2022-08-11T21:57:47.726Z,5.18
2022-08-11T22:00:34.073Z,6.18
2022-08-11T22:03:20.176Z,5.47
2022-08-11T22:06:06.972Z,5.50
2022-08-11T22:08:53.094Z,5.45
2022-08-11T22:11:39.307Z,5.35
2022-08-11T22:14:25.052Z,5.35
2022-08-11T22:17:10.760Z,5.68
2022-08-11T22:19:59.722Z,6.00
2022-08-11T22:22:53.027Z,20.95
2022-08-11T22:28:38.626Z,5.57
2022-08-11T22:31:25.921Z,6.10
2022-08-11T22:34:12.200Z,5.38
2022-08-11T22:37:02.422Z,5.43
2022-08-11T22:39:59.948Z,4.90
2022-08-11T22:42:51.349Z,5.38
2022-08-11T22:45:38.585Z,5.07
2022-08-11T22:48:26.194Z,4.82
2022-08-11T22:51:13.881Z,5.10
2022-08-11T22:54:00.708Z,4.55
2022-08-11T22:56:51.525Z,4.75
2022-08-11T22:59:38.774Z,5.07
2022-08-11T23:02:30.508Z,4.22
2022-08-11T23:05:17.973Z,3.83
2022-08-11T23:08:04.760Z,15.43
2022-08-11T23:10:52.369Z,9.25
2022-08-11T23:13:39.173Z,5.35
2022-08-11T23:16:25.819Z,5.13
2022-08-11T23:19:11.922Z,6.53
2022-08-11T23:21:58.816Z,5.18
2022-08-11T23:24:45.551Z,6.38
2022-08-11T23:27:32.751Z,5.82
2022-08-11T23:30:20.520Z,6.00
2022-08-11T23:33:09.178Z,6.38
2022-08-11T23:36:03.326Z,6.22
2022-08-11T23:38:51.198Z,6.30
2022-08-11T23:41:37.802Z,6.75
2022-08-11T23:44:24.554Z,6.60
2022-08-11T23:47:14.309Z,5.97
2022-08-11T23:50:00.702Z,6.78
2022-08-11T23:52:47.934Z,6.63
2022-08-11T23:55:34.132Z,7.03
2022-08-11T23:58:20.015Z,7.10
